Time;durP1;ratioP1;P1;durP2;ratioP2;P2;SDS_P1;SDS_P2;PMS_P1;PMS_P2;Temp;Humidity;BMP_temperature;BMP_pressure;BME280_temperature;BME280_humidity;BME280_pressure;Samples;Min_cycle;Max_cycle;Signal;HPM_P1;HPM_P2
2022/07/11 00:00:19;;;;;;;;;3.00;3.00;;;;;22.40;43.66;101960.03;5019293;28;45534;-77
2022/07/11 00:02:46;;;;;;;;;5.75;4.50;;;;;22.37;43.64;101958.34;5019148;28;45538;-77
2022/07/11 00:05:12;;;;;;;;;4.00;4.00;;;;;22.39;43.82;101959.16;5010937;28;46290;-77
2022/07/11 00:07:42;;;;;;;;;4.50;4.50;;;;;22.38;43.91;101960.09;5018765;28;45500;-77
2022/07/11 00:10:08;;;;;;;;;4.00;3.25;;;;;22.36;43.81;101961.94;5004968;28;45788;-79
2022/07/11 00:12:35;;;;;;;;;4.00;4.00;;;;;22.35;43.70;101952.16;5019264;28;45877;-79
2022/07/11 00:15:01;;;;;;;;;3.00;3.00;;;;;22.31;43.67;101952.31;5001179;28;47300;-79
2022/07/11 00:17:28;;;;;;;;;6.50;4.00;;;;;22.30;43.82;101951.44;5017188;28;45353;-78
2022/07/11 00:19:54;;;;;;;;;4.00;4.00;;;;;22.28;43.88;101950.59;5018977;28;45453;-78
2022/07/11 00:22:20;;;;;;;;;4.75;4.75;;;;;22.27;43.93;101948.00;5017406;28;45633;-78
2022/07/11 00:24:48;;;;;;;;;6.00;4.00;;;;;22.29;44.26;101956.84;5017954;28;45611;-78
2022/07/11 00:27:13;;;;;;;;;3.00;3.00;;;;;22.25;43.84;101956.06;5018193;28;45528;-79
2022/07/11 00:29:41;;;;;;;;;2.25;2.25;;;;;22.22;44.09;101954.38;5017400;28;45419;-79
2022/07/11 00:32:07;;;;;;;;;4.00;4.00;;;;;22.23;44.11;101953.44;5019708;28;45531;-78
2022/07/11 00:34:35;;;;;;;;;3.50;3.50;;;;;22.24;44.46;101954.34;5019776;28;45522;-78
2022/07/11 00:37:05;;;;;;;;;3.75;3.00;;;;;22.21;44.48;101947.25;5020753;28;45378;-78
2022/07/11 00:39:39;;;;;;;;;3.00;3.00;;;;;22.16;44.40;101942.91;5021104;28;45229;-78
2022/07/11 00:42:07;;;;;;;;;3.75;3.75;;;;;22.11;44.25;101943.09;5021147;28;45319;-78
2022/07/11 00:44:40;;;;;;;;;2.67;2.67;;;;;22.10;44.41;101941.31;5024563;28;47438;-78
2022/07/11 00:47:15;;;;;;;;;5.00;3.33;;;;;22.01;44.47;101929.09;5021088;28;45300;-78
2022/07/11 00:49:41;;;;;;;;;4.50;4.00;;;;;22.02;44.38;101929.97;5019537;28;45285;-78
2022/07/11 00:52:09;;;;;;;;;5.25;5.00;;;;;22.05;44.64;101935.22;5019141;28;45432;-77
2022/07/11 00:54:37;;;;;;;;;3.00;3.00;;;;;22.00;44.58;101935.38;5020636;28;45641;-78
2022/07/11 00:57:05;;;;;;;;;4.00;3.00;;;;;21.94;44.97;101932.00;5019417;28;45383;-78
2022/07/11 00:59:33;;;;;;;;;2.33;2.33;;;;;21.90;44.68;101919.66;5019648;28;45298;-77
2022/07/11 01:02:01;;;;;;;;;4.25;4.00;;;;;21.89;44.54;101913.41;5021026;28;45290;-77
2022/07/11 01:04:31;;;;;;;;;4.00;4.00;;;;;21.87;44.74;101923.31;5019276;28;47539;-78
2022/07/11 01:07:01;;;;;;;;;3.00;3.00;;;;;21.90;44.96;101930.38;5020362;28;45425;-78
2022/07/11 01:09:34;;;;;;;;;3.25;3.25;;;;;21.90;44.83;101928.56;5019155;28;45466;-78
2022/07/11 01:12:00;;;;;;;;;3.33;3.00;;;;;21.81;45.14;101928.84;5020645;28;45422;-78
2022/07/11 01:14:31;;;;;;;;;4.00;3.00;;;;;21.84;45.04;101941.28;5019041;28;46280;-78
2022/07/11 01:17:03;;;;;;;;;4.25;3.00;;;;;21.77;44.98;101935.25;5019274;28;45263;-78
2022/07/11 01:19:32;;;;;;;;;4.50;4.00;;;;;21.77;45.14;101930.75;5011539;28;45477;-78
2022/07/11 01:22:05;;;;;;;;;2.75;2.75;;;;;21.71;45.36;101927.41;5020120;28;45388;-78
2022/07/11 01:24:35;;;;;;;;;4.25;3.00;;;;;21.69;45.21;101924.75;5020301;28;46491;-78
2022/07/11 01:27:03;;;;;;;;;4.00;3.00;;;;;21.64;45.55;101928.50;5001027;28;45429;-78
2022/07/11 01:29:32;;;;;;;;;3.67;3.33;;;;;21.59;45.18;101918.78;5020601;28;45529;-78
2022/07/11 01:31:57;;;;;;;;;3.00;3.00;;;;;21.64;45.37;101929.38;5019021;28;45259;-78
2022/07/11 01:34:33;;;;;;;;;2.75;2.75;;;;;21.55;45.51;101922.50;5018932;28;46236;-78
2022/07/11 01:37:04;;;;;;;;;4.00;3.00;;;;;21.61;45.60;101929.47;5006848;28;45306;-78
2022/07/11 01:39:30;;;;;;;;;6.00;3.75;;;;;21.53;45.77;101923.47;5019102;28;45307;-78
2022/07/11 01:41:58;;;;;;;;;2.33;2.33;;;;;21.51;45.60;101922.63;5035600;28;45209;-77
2022/07/11 01:44:29;;;;;;;;;4.50;4.50;;;;;21.49;45.94;101925.38;5014117;28;48219;-77
2022/07/11 01:46:57;;;;;;;;;3.00;3.00;;;;;21.46;45.65;101927.25;5020197;28;45429;-77
2022/07/11 01:49:32;;;;;;;;;3.00;3.00;;;;;21.44;45.86;101927.31;5020182;28;45298;-78
2022/07/11 01:52:00;;;;;;;;;5.75;3.75;;;;;21.43;45.86;101922.00;5012915;28;45309;-78
2022/07/11 01:54:33;;;;;;;;;4.00;4.00;;;;;21.48;46.04;101931.66;5017601;28;47177;-77
2022/07/11 01:57:01;;;;;;;;;3.00;3.00;;;;;21.44;46.00;101931.78;5020152;28;45311;-77
2022/07/11 01:59:31;;;;;;;;;3.50;2.00;;;;;21.40;46.09;101940.84;5020586;28;45395;-77
2022/07/11 02:02:00;;;;;;;;;3.00;3.00;;;;;21.39;46.21;101933.75;5019924;28;45345;-77
2022/07/11 02:04:25;;;;;;;;;4.50;4.50;;;;;21.30;46.34;101924.13;5018454;28;47309;-77
2022/07/11 02:06:56;;;;;;;;;2.00;2.00;;;;;21.29;46.24;101925.94;5019603;28;45293;-77
2022/07/11 02:09:26;;;;;;;;;2.00;2.00;;;;;21.27;46.57;101919.72;5020012;28;45255;-77
2022/07/11 02:11:56;;;;;;;;;2.33;2.33;;;;;21.32;46.55;101935.69;5018389;28;46337;-77
2022/07/11 02:14:30;;;;;;;;;2.50;2.50;;;;;21.22;46.48;101918.97;5019727;28;45277;-77
2022/07/11 02:16:58;;;;;;;;;4.50;4.50;;;;;21.23;46.48;101926.13;5019430;28;45473;-77
2022/07/11 02:19:26;;;;;;;;;2.25;2.25;;;;;21.24;46.22;101927.00;5018410;28;45272;-77
2022/07/11 02:21:51;;;;;;;;;3.00;3.00;;;;;21.16;46.85;101919.16;5037444;28;46191;-77
2022/07/11 02:24:19;;;;;;;;;4.00;3.00;;;;;21.20;46.33;101942.28;5023127;28;46613;-78
2022/07/11 02:26:47;;;;;;;;;3.00;3.00;;;;;21.17;47.07;101931.66;5023200;28;45413;-77
2022/07/11 02:29:12;;;;;;;;;4.25;4.00;;;;;21.11;46.77;101924.66;5023198;28;45350;-77
2022/07/11 02:31:40;;;;;;;;;3.00;3.00;;;;;21.01;47.03;101914.25;5021726;28;45535;-77
2022/07/11 02:34:10;;;;;;;;;4.33;3.00;;;;;21.05;46.90;101921.28;5021910;28;47839;-78
2022/07/11 02:36:42;;;;;;;;;3.75;3.00;;;;;21.01;46.87;101908.91;5021140;28;46159;-78
2022/07/11 02:39:10;;;;;;;;;4.00;4.00;;;;;21.00;47.26;101918.72;5023350;28;45406;-78
2022/07/11 02:41:39;;;;;;;;;4.00;3.75;;;;;20.88;47.41;101898.56;5021631;28;45528;-78
2022/07/11 02:44:07;;;;;;;;;2.25;2.25;;;;;20.95;47.14;101915.31;5021533;28;48301;-77
2022/07/11 02:46:36;;;;;;;;;3.50;3.50;;;;;20.96;47.49;101921.56;5010065;28;45385;-77
2022/07/11 02:49:04;;;;;;;;;3.00;3.00;;;;;20.92;47.69;101926.09;5023481;28;45252;-76
2022/07/11 02:51:42;;;;;;;;;3.00;3.00;;;;;20.90;47.48;101917.22;5019781;28;45299;-77
2022/07/11 02:54:10;;;;;;;;;4.25;4.00;;;;;20.86;47.63;101913.78;5018913;28;46521;-77
2022/07/11 02:56:38;;;;;;;;;4.25;3.00;;;;;20.89;47.27;101928.88;5022929;28;45426;-77
2022/07/11 02:59:06;;;;;;;;;2.75;2.25;;;;;20.82;47.42;101909.44;5021492;28;45277;-77
2022/07/11 03:01:31;;;;;;;;;2.75;2.75;;;;;20.80;47.56;101910.41;5022776;28;45371;-77
2022/07/11 03:03:59;;;;;;;;;3.75;3.00;;;;;20.79;47.86;101900.59;5022364;28;45424;-77
2022/07/11 03:06:25;;;;;;;;;4.25;4.25;;;;;20.78;47.82;101902.41;5021194;28;45380;-77
2022/07/11 03:08:52;;;;;;;;;3.00;3.00;;;;;20.69;47.68;101895.50;5021232;28;45541;-77
2022/07/11 03:11:19;;;;;;;;;3.33;3.33;;;;;20.78;48.10;101912.22;5022513;28;45189;-77
2022/07/11 03:13:47;;;;;;;;;4.75;4.00;;;;;20.68;47.91;101904.44;5021103;28;46006;-77
2022/07/11 03:16:17;;;;;;;;;3.33;3.33;;;;;20.61;47.92;101897.53;5022523;28;45417;-77
2022/07/11 03:18:47;;;;;;;;;5.75;5.00;;;;;20.67;48.47;101909.84;5022255;28;45223;-77
2022/07/11 03:21:13;;;;;;;;;2.75;2.75;;;;;20.69;48.08;101918.72;5022043;28;45410;-77
2022/07/11 03:23:41;;;;;;;;;4.00;4.00;;;;;20.64;48.41;101901.91;5022149;28;45544;-77
2022/07/11 03:26:06;;;;;;;;;4.00;4.00;;;;;20.64;48.41;101910.81;5037604;28;45261;-77
2022/07/11 03:28:34;;;;;;;;;3.50;3.50;;;;;20.68;48.33;101919.63;5022316;28;45355;-78
2022/07/11 03:31:03;;;;;;;;;5.50;5.25;;;;;20.62;48.42;101918.00;5021893;28;45606;-77
2022/07/11 03:33:35;;;;;;;;;4.25;4.25;;;;;20.61;48.64;101916.25;5037217;28;46352;-77
2022/07/11 03:36:08;;;;;;;;;4.75;4.75;;;;;20.56;48.49;101918.16;5021611;28;45476;-77
2022/07/11 03:38:36;;;;;;;;;4.00;4.00;;;;;20.55;48.75;101918.19;5022332;28;45231;-77
2022/07/11 03:41:06;;;;;;;;;4.25;4.25;;;;;20.54;48.62;101917.31;5021089;28;45610;-78
2022/07/11 03:43:38;;;;;;;;;4.50;4.50;;;;;20.43;48.97;101896.16;5020368;28;45840;-77
2022/07/11 03:46:08;;;;;;;;;4.00;3.25;;;;;20.51;48.84;101919.19;5017267;28;45455;-77
2022/07/11 03:48:41;;;;;;;;;3.75;3.75;;;;;20.46;48.50;101916.63;5022223;28;45295;-77
2022/07/11 03:51:18;;;;;;;;;4.75;4.50;;;;;20.48;48.78;101922.81;5021555;28;45219;-77
2022/07/11 03:53:44;;;;;;;;;3.25;3.25;;;;;20.40;48.68;101909.63;5015150;28;45430;-78
2022/07/11 03:56:09;;;;;;;;;4.00;4.00;;;;;20.49;49.13;101924.56;5022026;28;45350;-76
2022/07/11 03:58:38;;;;;;;;;5.00;2.67;;;;;20.33;48.83;101899.13;5020724;28;45231;-79
2022/07/11 04:01:08;;;;;;;;;4.33;4.33;;;;;20.41;49.26;101914.06;5022050;28;45471;-76
2022/07/11 04:03:37;;;;;;;;;3.00;3.00;;;;;20.38;49.28;101911.47;5021688;28;47354;-77
2022/07/11 04:06:09;;;;;;;;;3.50;3.50;;;;;20.44;48.96;101921.13;5019854;28;45498;-77
2022/07/11 04:08:40;;;;;;;;;3.25;3.25;;;;;20.44;49.87;101922.00;5020364;28;45436;-78
2022/07/11 04:11:13;;;;;;;;;4.25;3.50;;;;;20.45;49.39;101920.22;5020212;28;45380;-77
2022/07/11 04:13:43;;;;;;;;;4.00;4.00;;;;;20.45;49.11;101922.91;5021446;28;45417;-78
2022/07/11 04:16:10;;;;;;;;;3.50;3.50;;;;;20.40;49.49;101920.34;5022297;28;45354;-78
2022/07/11 04:18:40;;;;;;;;;3.00;2.00;;;;;20.33;49.60;101908.03;5020571;28;45356;-78
2022/07/11 04:21:09;;;;;;;;;2.25;2.00;;;;;20.29;49.60;101911.72;5021473;28;45241;-78
2022/07/11 04:23:34;;;;;;;;;5.00;4.00;;;;;20.31;49.32;101920.53;5021324;28;45414;-78
2022/07/11 04:26:03;;;;;;;;;4.50;3.25;;;;;20.36;49.25;101923.13;5013584;28;45471;-78
2022/07/11 04:28:33;;;;;;;;;5.50;3.50;;;;;20.36;49.70;101936.50;5012693;28;45518;-78
2022/07/11 04:31:03;;;;;;;;;3.50;3.50;;;;;20.31;49.34;101930.38;5021296;28;45181;-79
2022/07/11 04:33:28;;;;;;;;;3.00;3.00;;;;;20.36;49.61;101939.16;5019858;28;47631;-78
2022/07/11 04:35:59;;;;;;;;;3.75;3.75;;;;;20.41;49.73;101946.16;5021311;28;45603;-78
2022/07/11 04:38:24;;;;;;;;;4.25;4.25;;;;;20.42;49.50;101945.25;5021267;28;45226;-78
2022/07/11 04:40:52;;;;;;;;;5.75;5.75;;;;;20.38;49.24;101934.66;5019788;28;45523;-78
2022/07/11 04:43:20;;;;;;;;;3.50;3.25;;;;;20.41;49.62;101934.56;5022700;28;47360;-78
2022/07/11 04:45:46;;;;;;;;;5.00;4.00;;;;;20.43;49.19;101925.59;5016171;28;45288;-78
2022/07/11 04:48:13;;;;;;;;;6.00;5.00;;;;;20.48;49.60;101953.13;5021183;28;45233;-78
2022/07/11 04:50:42;;;;;;;;;4.00;4.00;;;;;20.41;49.58;101940.81;5021074;28;45261;-78
2022/07/11 04:53:10;;;;;;;;;5.00;5.00;;;;;20.45;49.98;101945.16;5020667;28;46400;-78
2022/07/11 04:55:40;;;;;;;;;4.25;4.25;;;;;20.34;49.50;101930.28;5019497;28;45412;-78
2022/07/11 04:58:08;;;;;;;;;5.75;4.75;;;;;20.42;50.01;101945.25;5021151;28;45360;-78
2022/07/11 05:00:41;;;;;;;;;6.25;5.25;;;;;20.44;49.63;101946.06;5020583;28;45331;-78
2022/07/11 05:03:09;;;;;;;;;4.50;4.50;;;;;20.44;50.12;101947.88;5019328;28;48349;-78
2022/07/11 05:05:40;;;;;;;;;3.00;3.00;;;;;20.44;49.80;101946.06;5017363;28;45483;-79
2022/07/11 05:08:06;;;;;;;;;3.50;3.50;;;;;20.43;49.64;101940.78;5020803;28;45520;-79
2022/07/11 05:10:36;;;;;;;;;3.00;3.00;;;;;20.45;49.35;101947.84;5019290;28;45610;-78
2022/07/11 05:13:06;;;;;;;;;3.75;3.75;;;;;20.47;49.75;101945.13;5020623;28;46309;-78
2022/07/11 05:15:37;;;;;;;;;7.00;5.00;;;;;20.51;49.51;101956.63;5020494;28;45379;-78
2022/07/11 05:18:08;;;;;;;;;4.00;4.00;;;;;20.48;49.46;101960.25;5020588;28;45188;-78
2022/07/11 05:20:41;;;;;;;;;6.25;4.50;;;;;20.56;49.86;101973.47;5000369;28;45555;-78
2022/07/11 05:23:11;;;;;;;;;5.50;4.50;;;;;20.59;49.73;101976.06;5013354;28;46437;-78
2022/07/11 05:25:36;;;;;;;;;7.75;6.00;;;;;20.62;50.01;101974.19;5018985;28;45236;-78
2022/07/11 05:28:04;;;;;;;;;6.50;5.50;;;;;20.57;49.81;101962.72;5019211;28;45241;-78
2022/07/11 05:30:29;;;;;;;;;5.33;4.00;;;;;20.64;49.44;101968.81;5007663;28;45333;-78
2022/07/11 05:32:57;;;;;;;;;5.50;5.00;;;;;20.54;49.59;101952.09;5020163;28;45399;-78
2022/07/11 05:35:31;;;;;;;;;4.50;4.00;;;;;20.62;49.65;101958.13;5020241;28;45294;-77
2022/07/11 05:37:59;;;;;;;;;6.00;4.00;;;;;20.74;49.56;101972.97;5019996;28;45362;-77
2022/07/11 05:40:29;;;;;;;;;7.00;7.00;;;;;20.82;49.81;101973.69;5020227;28;45343;-78
2022/07/11 05:42:54;;;;;;;;;4.33;3.00;;;;;20.82;49.75;101970.09;5018674;28;48035;-78
2022/07/11 05:45:22;;;;;;;;;7.75;5.25;;;;;20.91;49.55;101964.53;5013332;28;45169;-78
2022/07/11 05:47:57;;;;;;;;;4.25;4.25;;;;;20.92;49.75;101966.25;5035436;28;45371;-78
2022/07/11 05:50:25;;;;;;;;;3.50;3.50;;;;;21.01;49.53;101959.75;5019925;28;45497;-77
2022/07/11 05:52:58;;;;;;;;;6.00;5.00;;;;;21.03;49.40;101956.13;5010485;28;47144;-77
2022/07/11 05:55:24;;;;;;;;;8.00;6.00;;;;;21.15;49.57;101965.63;5018347;28;45454;-76
2022/07/11 05:57:57;;;;;;;;;5.00;5.00;;;;;21.18;48.93;101964.66;5018579;28;45382;-76
2022/07/11 06:00:25;;;;;;;;;4.00;3.50;;;;;21.13;49.10;101954.94;5019943;28;45468;-76
2022/07/11 06:02:53;;;;;;;;;3.00;3.00;;;;;21.22;49.14;101958.28;5019857;28;46085;-75
2022/07/11 06:05:26;;;;;;;;;4.00;4.00;;;;;21.22;48.80;101956.47;5018335;28;45484;-76
2022/07/11 06:10:45;;;;;;;;;4.00;4.00;;;;;21.36;49.17;101966.81;5019585;28;45228;-76
2022/07/11 06:13:11;;;;;;;;;4.33;4.00;;;;;21.42;48.75;101971.16;5018154;28;47986;-76
2022/07/11 06:15:37;;;;;;;;;5.00;5.00;;;;;21.50;48.89;101974.47;5019485;28;45446;-75
2022/07/11 06:18:04;;;;;;;;;4.00;4.00;;;;;21.48;48.63;101957.56;5018204;28;45271;-75
2022/07/11 06:20:33;;;;;;;;;6.00;6.00;;;;;21.62;48.86;101966.06;5019457;28;45310;-75
2022/07/11 06:23:00;;;;;;;;;4.00;3.67;;;;;21.68;48.81;101979.31;5019400;28;46361;-76
2022/07/11 06:25:31;;;;;;;;;5.00;5.00;;;;;21.66;48.64;101958.81;5017911;28;45273;-76
2022/07/11 06:28:00;;;;;;;;;6.50;5.00;;;;;21.75;48.63;101966.56;5018252;28;45451;-76
2022/07/11 06:30:30;;;;;;;;;4.00;4.00;;;;;21.81;48.31;101969.06;5018270;28;45412;-76
2022/07/11 06:32:58;;;;;;;;;4.33;3.00;;;;;21.85;48.16;101962.69;5017837;28;46606;-76
2022/07/11 06:35:29;;;;;;;;;6.00;6.00;;;;;21.92;48.12;101971.41;5017368;28;45389;-76
2022/07/11 06:38:00;;;;;;;;;5.00;4.67;;;;;21.98;47.94;101969.41;5019173;28;45173;-76
2022/07/11 06:40:26;;;;;;;;;3.67;3.67;;;;;22.05;48.19;101964.72;5008527;28;45543;-76
2022/07/11 06:42:54;;;;;;;;;6.50;5.00;;;;;22.07;47.82;101960.19;5015526;28;45593;-76
2022/07/11 06:45:19;;;;;;;;;5.75;4.50;;;;;22.15;47.68;101959.94;5019251;28;45289;-75
2022/07/11 06:47:44;;;;;;;;;6.67;5.67;;;;;22.27;47.68;101972.13;5017881;28;45256;-76
2022/07/11 06:50:13;;;;;;;;;5.00;5.00;;;;;22.28;47.61;101958.66;5017709;28;45542;-76
2022/07/11 06:52:40;;;;;;;;;3.00;3.00;;;;;22.34;47.68;101957.56;5010207;28;47693;-76
2022/07/11 06:55:07;;;;;;;;;5.50;5.50;;;;;22.40;47.28;101960.94;5019066;28;45243;-77
2022/07/11 06:57:39;;;;;;;;;4.00;4.00;;;;;22.54;47.53;101971.19;5019105;28;45160;-75
2022/07/11 07:00:06;;;;;;;;;9.00;7.50;;;;;22.59;47.10;101961.19;5017799;28;46159;-75
2022/07/11 07:02:38;;;;;;;;;4.00;4.00;;;;;22.70;46.87;101968.00;5017379;28;47431;-75
2022/07/11 07:05:07;;;;;;;;;2.00;2.00;;;;;22.75;47.04;101958.84;5017170;28;45419;-75
2022/07/11 07:07:34;;;;;;;;;5.00;3.50;;;;;22.81;46.98;101964.00;5021167;28;45216;-74
2022/07/11 07:10:02;;;;;;;;;7.00;5.50;;;;;22.90;46.21;101965.47;5021019;28;45499;-76
2022/07/11 07:12:35;;;;;;;;;4.25;4.00;;;;;22.98;46.31;101971.47;5021959;28;45614;-77
2022/07/11 07:15:04;;;;;;;;;5.00;5.00;;;;;23.05;46.44;101970.31;5022133;28;45349;-76
2022/07/11 07:17:34;;;;;;;;;4.00;4.00;;;;;23.14;46.02;101970.91;5022216;28;45461;-77
2022/07/11 07:20:12;;;;;;;;;7.33;3.00;;;;;23.17;45.98;101963.59;5020735;28;45431;-78
2022/07/11 07:22:48;;;;;;;;;5.67;3.67;;;;;23.29;45.75;101967.66;5022218;28;45421;-77
2022/07/11 07:25:18;;;;;;;;;4.67;4.67;;;;;23.41;45.89;101969.00;5013148;28;45491;-78
2022/07/11 07:27:44;;;;;;;;;4.33;4.33;;;;;23.48;45.52;101968.72;5020538;28;45302;-77
2022/07/11 07:30:10;;;;;;;;;4.00;4.00;;;;;23.58;45.38;101966.56;5020370;28;50104;-78
2022/07/11 07:32:37;;;;;;;;;4.00;4.00;;;;;23.66;45.18;101963.59;5021731;28;45474;-76
2022/07/11 07:35:06;;;;;;;;;11.75;11.75;;;;;23.71;45.15;101965.19;5021128;28;45426;-76
2022/07/11 07:37:34;;;;;;;;;4.33;4.33;;;;;23.82;44.92;101977.31;5020229;28;45524;-80
2022/07/11 07:40:01;;;;;;;;;4.33;3.00;;;;;23.85;44.37;101972.72;5021318;28;45257;-75
2022/07/11 07:42:27;;;;;;;;;3.00;3.00;;;;;23.98;44.23;101973.09;5021599;28;45975;-75
2022/07/11 07:44:58;;;;;;;;;4.67;3.67;;;;;24.05;44.01;101974.59;5021453;28;45441;-76
2022/07/11 07:47:27;;;;;;;;;4.67;4.67;;;;;24.13;43.83;101980.53;5021689;28;45540;-75
2022/07/11 07:49:58;;;;;;;;;4.67;4.00;;;;;24.20;43.65;101973.09;5021343;28;45518;-75
2022/07/11 07:52:25;;;;;;;;;3.67;2.33;;;;;24.24;43.59;101972.00;5021120;28;45308;-77
2022/07/11 07:54:58;;;;;;;;;2.67;2.67;;;;;24.34;43.85;101975.22;5021659;28;45507;-76
2022/07/11 07:57:26;;;;;;;;;2.33;2.33;;;;;24.45;42.93;101977.47;5021693;28;45417;-75
2022/07/11 08:01:34;;;;;;;;;4.67;3.00;;;;;24.51;42.89;101971.81;5021495;28;45367;-77
2022/07/11 08:02:42;;;;;;;;;4.67;4.67;;;;;24.56;43.31;101968.00;5021170;28;46020;-78
2022/07/11 08:05:10;;;;;;;;;3.00;3.00;;;;;24.69;42.84;101983.63;5019749;28;45321;-78
2022/07/11 08:07:36;;;;;;;;;3.67;3.67;;;;;24.71;43.08;101976.38;5021400;28;45236;-78
2022/07/11 08:10:10;;;;;;;;;5.00;5.00;;;;;24.76;42.96;101971.66;5019340;28;45703;-80
2022/07/11 08:12:37;;;;;;;;;4.00;3.67;;;;;24.83;42.24;101971.34;5000254;28;47496;-79
2022/07/11 08:15:08;;;;;;;;;2.00;2.00;;;;;24.89;41.94;101962.09;5015080;28;45316;-79
2022/07/11 08:17:38;;;;;;;;;2.00;2.00;;;;;24.95;41.67;101956.44;5020409;28;45623;-79
2022/07/11 08:20:04;;;;;;;;;2.33;2.33;;;;;25.02;41.93;101957.91;5020479;28;45335;-79
2022/07/11 08:22:36;;;;;;;;;4.00;3.00;;;;;25.11;41.81;101964.72;5021121;28;46290;-78
2022/07/11 08:25:09;;;;;;;;;4.00;4.00;;;;;25.17;41.62;101950.97;5019344;28;45454;-77
2022/07/11 08:27:42;;;;;;;;;4.00;3.00;;;;;25.21;41.38;101955.28;5019936;28;45347;-78
2022/07/11 08:30:18;;;;;;;;;3.00;3.00;;;;;25.29;41.50;101953.13;5001797;28;45330;-78
2022/07/11 08:32:46;;;;;;;;;3.00;3.00;;;;;25.42;41.24;101947.13;5011790;28;46484;-77
2022/07/11 08:38:17;;;;;;;;;4.33;3.00;;;;;25.58;40.82;101933.81;5010078;28;45473;-79
2022/07/11 08:41:06;;;;;;;;;;;;;;;;;;;;;
2022/07/11 08:43:39;;;;;;;;;3.33;2.33;;;;;25.77;40.19;101928.41;5019793;28;73597;-80
2022/07/11 08:46:31;;;;;;;;;3.00;2.00;;;;;25.86;39.95;101928.88;5020678;28;45414;-80
2022/07/11 08:49:02;;;;;;;;;2.33;2.33;;;;;25.91;40.03;101920.56;5010940;28;45391;-77
2022/07/11 08:51:33;;;;;;;;;2.00;2.00;;;;;25.98;39.87;101918.41;5017386;28;45391;-77
2022/07/11 08:54:06;;;;;;;;;2.00;2.00;;;;;26.03;39.57;101929.84;5030869;28;47056;-77
2022/07/11 08:56:42;;;;;;;;;3.00;3.00;;;;;26.06;39.84;101924.31;5020768;28;45592;-78
2022/07/11 08:59:27;;;;;;;;;2.00;1.00;;;;;26.06;39.67;101925.19;5035997;28;45352;-78
2022/07/11 09:02:00;;;;;;;;;2.67;2.00;;;;;26.09;39.53;101925.03;5018918;28;45955;-77
2022/07/11 09:04:33;;;;;;;;;1.00;1.00;;;;;26.12;39.78;101921.31;5020492;28;45398;-79
2022/07/11 09:07:04;;;;;;;;;1.67;1.67;;;;;26.17;39.19;101924.66;5018687;28;45192;-81
2022/07/11 09:09:32;;;;;;;;;3.00;3.00;;;;;26.24;39.11;101922.50;5020466;28;45406;-78
2022/07/11 09:12:13;;;;;;;;;3.00;2.00;;;;;26.26;39.35;101921.47;5020200;28;45486;-76
2022/07/11 09:14:47;;;;;;;;;2.00;2.00;;;;;26.30;39.20;101916.78;5018891;28;47072;-77
2022/07/11 09:17:26;;;;;;;;;2.00;2.00;;;;;26.40;39.08;101921.63;5018461;28;45388;-77
2022/07/11 09:19:57;;;;;;;;;1.33;1.33;;;;;26.48;38.99;101923.94;5018538;28;45218;-77
2022/07/11 09:25:23;;;;;;;;;3.00;2.67;;;;;26.60;38.75;101914.38;5020031;28;45806;-79
2022/07/11 09:27:56;;;;;;;;;3.00;3.00;;;;;26.66;39.00;101914.06;5017214;28;45329;-79
2022/07/11 09:30:55;;;;;;;;;2.00;1.33;;;;;26.77;38.39;101910.78;5014759;28;45385;-80
2022/07/11 09:33:25;;;;;;;;;3.67;2.67;;;;;26.84;38.14;101904.97;5017692;28;45402;-79
2022/07/11 09:36:05;;;;;;;;;3.00;3.00;;;;;26.94;38.49;101909.88;5017733;28;47089;-80
2022/07/11 09:39:19;;;;;;;;;4.00;4.00;;;;;26.98;38.09;101903.34;5006872;28;45382;-79
2022/07/11 09:41:54;;;;;;;;;2.00;2.00;;;;;27.06;37.96;101901.97;5019451;28;45236;-80
2022/07/11 09:44:35;;;;;;;;;2.67;2.67;;;;;27.13;38.00;101899.81;5013543;28;45637;-81
2022/07/11 09:47:11;;;;;;;;;3.33;2.67;;;;;27.16;37.95;101902.34;5015935;28;46269;-81
2022/07/11 09:49:42;;;;;;;;;2.33;2.33;;;;;27.23;37.75;101902.91;5016361;28;45421;-80
2022/07/11 09:52:12;;;;;;;;;1.67;1.67;;;;;27.26;37.68;101900.03;5017139;28;45543;-80
2022/07/11 09:55:05;;;;;;;;;3.00;3.00;;;;;27.34;37.43;101902.31;5018592;28;45576;-81
2022/07/11 09:57:36;;;;;;;;;2.67;2.67;;;;;27.45;37.23;101907.97;5018678;28;45707;-80
2022/07/11 10:00:16;;;;;;;;;2.00;2.00;;;;;27.43;37.24;101894.56;5018123;28;45436;-81
2022/07/11 10:05:55;;;;;;;;;3.00;3.00;;;;;27.52;37.16;101903.13;5019158;28;45446;-85
2022/07/11 10:08:26;;;;;;;;;1.67;1.00;;;;;27.62;37.33;101901.63;5018105;28;47170;-81
2022/07/11 10:11:02;;;;;;;;;2.33;2.33;;;;;27.68;36.75;101891.31;5017758;28;45425;-83
2022/07/11 10:13:46;;;;;;;;;1.00;1.00;;;;;27.81;36.69;101896.06;5019598;28;45544;-82
2022/07/11 10:16:40;;;;;;;;;1.33;1.33;;;;;27.85;36.52;101894.91;5017745;28;45486;-82
2022/07/11 10:19:50;;;;;;;;;2.00;2.00;;;;;27.93;36.51;101892.63;5016310;28;46345;-84
2022/07/11 10:22:34;;;;;;;;;2.00;2.00;;;;;27.95;36.58;101897.97;5002111;28;45439;-84
2022/07/11 10:26:04;;;;;;;;;1.00;1.00;;;;;28.05;36.51;101900.03;5017655;28;45414;-82
2022/07/11 10:28:41;;;;;;;;;1.33;1.33;;;;;28.27;35.90;101905.03;4950667;28;45639;-81
2022/07/11 10:35:25;;;;;;;;;2.00;2.00;;;;;28.56;35.31;101894.31;4975387;28;45412;-84
2022/07/11 10:38:14;;;;;;;;;;;;;;;;;;;;;
2022/07/11 10:42:03;;;;;;;;;;;;;;;;;;;;;
2022/07/11 10:51:48;;;;;;;;;;;;;;;;;;;;;
2022/07/11 11:00:58;;;;;;;;;;;;;;;;;;;;;
2022/07/11 11:07:35;;;;;;;;;10.33;6.67;;;;;30.31;32.13;101891.19;4960905;28;45381;-85
2022/07/11 11:10:43;;;;;;;;;;;;;;;;;;;;;
2022/07/11 11:23:58;;;;;;;;;;;;;;;;;;;;;
2022/07/11 11:27:05;;;;;;;;;2.00;1.33;;;;;31.11;31.04;101878.28;5014219;28;73247;-81
2022/07/11 11:29:43;;;;;;;;;1.33;1.33;;;;;31.26;30.98;101872.72;5029727;28;45312;-82
2022/07/11 11:32:17;;;;;;;;;0.67;0.33;;;;;31.41;30.76;101877.06;5008372;28;45710;-81
2022/07/11 11:34:48;;;;;;;;;3.00;2.00;;;;;31.56;30.46;101869.59;5019394;28;47899;-79
2022/07/11 11:37:23;;;;;;;;;1.33;1.33;;;;;31.63;30.27;101873.59;5021699;28;45336;-79
2022/07/11 11:40:09;;;;;;;;;1.00;1.00;;;;;31.70;29.35;101858.53;5021830;28;45353;-79
2022/07/11 11:42:47;;;;;;;;;3.00;2.00;;;;;31.65;29.78;101855.31;5021685;28;45446;-81
2022/07/11 11:53:32;;;;;;;;;;;;;;;;;;;;;
2022/07/11 11:59:03;;;;;;;;;1.00;1.00;;;;;32.24;29.61;101847.16;4902362;28;45568;-79
2022/07/11 12:01:36;;;;;;;;;3.33;3.33;;;;;32.34;29.37;101835.50;4957593;28;46040;-79
2022/07/11 12:04:05;;;;;;;;;1.33;1.33;;;;;32.48;29.07;101841.66;4979705;28;45860;-79
2022/07/11 12:06:42;;;;;;;;;2.33;2.00;;;;;32.53;28.87;101840.41;4996452;28;45517;-79
2022/07/11 12:09:16;;;;;;;;;0.67;0.67;;;;;32.49;29.30;101842.53;5019561;28;47575;-79
2022/07/11 12:11:46;;;;;;;;;1.67;1.67;;;;;32.61;28.77;101838.84;5016823;28;45448;-79
2022/07/11 12:14:19;;;;;;;;;0.67;0.67;;;;;32.75;29.25;101848.63;5019528;28;45500;-80
2022/07/11 12:16:46;;;;;;;;;1.00;1.00;;;;;32.85;28.87;101844.19;5020640;28;45236;-80
2022/07/11 12:19:20;;;;;;;;;1.33;1.33;;;;;32.95;28.17;101831.50;5018774;28;47838;-79
2022/07/11 12:21:50;;;;;;;;;0.33;0.33;;;;;32.91;28.08;101834.63;5020567;28;45237;-79
2022/07/11 12:24:20;;;;;;;;;2.33;2.33;;;;;32.89;28.12;101833.88;5020912;28;45312;-79
2022/07/11 12:26:50;;;;;;;;;2.33;2.33;;;;;32.97;28.55;101835.97;5019228;28;45557;-79
2022/07/11 12:29:19;;;;;;;;;2.33;2.33;;;;;33.10;27.98;101839.47;5014210;28;45898;-80
2022/07/11 12:32:19;;;;;;;;;2.00;1.00;;;;;33.21;27.93;101824.94;5016462;28;45328;-79
2022/07/11 12:35:02;;;;;;;;;1.33;0.67;;;;;33.21;27.89;101822.22;5012927;28;45354;-79
2022/07/11 12:37:38;;;;;;;;;1.00;1.00;;;;;33.21;27.80;101828.53;5033767;28;45298;-80
2022/07/11 12:40:12;;;;;;;;;2.67;2.67;;;;;33.29;27.77;101825.19;5019044;28;46871;-79
2022/07/11 12:42:46;;;;;;;;;1.33;1.33;;;;;33.31;27.65;101818.59;5019471;28;45427;-79
2022/07/11 12:45:22;;;;;;;;;0.67;0.67;;;;;33.44;27.71;101815.72;5019642;28;45538;-78
2022/07/11 12:47:53;;;;;;;;;2.33;1.00;;;;;33.63;27.69;101814.16;5018808;28;46431;-80
2022/07/11 12:50:28;;;;;;;;;1.33;0.67;;;;;33.79;27.24;101815.50;5019080;28;46605;-80